createdAt,value
2019-03-30T00:00:06.738Z,0.2
2019-03-30T00:00:18.571Z,0.1
2019-03-30T00:00:30.408Z,0.1
2019-03-30T00:00:42.245Z,0.1
2019-03-30T00:00:54.076Z,0.1
2019-03-30T00:01:05.909Z,0.1
2019-03-30T00:01:17.752Z,0.1
2019-03-30T00:01:29.637Z,0.1
2019-03-30T00:01:41.473Z,0.1
2019-03-30T00:01:53.308Z,0.1
2019-03-30T00:02:05.140Z,0.1
2019-03-30T00:02:16.972Z,0.2
2019-03-30T00:02:28.801Z,0.2
2019-03-30T00:02:40.622Z,0.1
2019-03-30T00:02:52.453Z,0.1
2019-03-30T00:03:04.291Z,0.1
2019-03-30T00:03:16.120Z,0.1
2019-03-30T00:03:27.950Z,0.1
2019-03-30T00:03:39.784Z,0.1
2019-03-30T00:03:52.611Z,0.1
2019-03-30T00:04:04.447Z,0.1
2019-03-30T00:04:16.286Z,0.1
2019-03-30T00:04:28.113Z,0.2
2019-03-30T00:04:39.942Z,0.2
2019-03-30T00:04:51.771Z,0.2
2019-03-30T00:05:03.603Z,0.2
2019-03-30T00:05:15.439Z,0.3
2019-03-30T00:05:27.276Z,0.2
2019-03-30T00:05:39.108Z,0.2
2019-03-30T00:05:50.948Z,0.2
2019-03-30T00:06:02.786Z,0.1
2019-03-30T00:06:14.616Z,0.1
2019-03-30T00:06:26.446Z,0
2019-03-30T00:06:38.302Z,0.1
2019-03-30T00:06:50.139Z,0.1
2019-03-30T00:07:01.970Z,0.2
2019-03-30T00:07:13.802Z,0.2
2019-03-30T00:07:25.633Z,0.1
2019-03-30T00:07:37.465Z,0.2
2019-03-30T00:07:49.306Z,0.2
2019-03-30T00:08:01.135Z,0.2
2019-03-30T00:08:13.044Z,0.1
2019-03-30T00:08:24.809Z,0.1
2019-03-30T00:08:36.649Z,0.1
2019-03-30T00:08:48.483Z,0.1
2019-03-30T00:09:00.329Z,0.1
2019-03-30T00:09:12.157Z,0.1
2019-03-30T00:09:23.987Z,0.1
2019-03-30T00:09:35.823Z,0.1
2019-03-30T00:09:47.804Z,0.1
2019-03-30T00:09:59.633Z,0.1
2019-03-30T00:10:11.464Z,0.2
2019-03-30T00:10:23.302Z,0.1
2019-03-30T00:10:35.130Z,0.1
2019-03-30T00:10:47.207Z,0.1
2019-03-30T00:10:58.798Z,0.1
2019-03-30T00:11:10.644Z,0.1
2019-03-30T00:11:22.476Z,0.1
2019-03-30T00:11:34.308Z,0.1
2019-03-30T00:11:46.138Z,0.1
2019-03-30T00:11:58.113Z,0.1
2019-03-30T00:12:09.803Z,0.1
2019-03-30T00:12:23.005Z,0.1
2019-03-30T00:12:33.470Z,0.2
2019-03-30T00:12:45.308Z,0.2
2019-03-30T00:12:57.139Z,0.2
2019-03-30T00:13:08.975Z,0.1
2019-03-30T00:13:20.809Z,0.1
2019-03-30T00:13:33.639Z,0.2
2019-03-30T00:13:45.456Z,0.2
2019-03-30T00:13:57.297Z,0.1
2019-03-30T00:14:09.127Z,0.1
2019-03-30T00:14:20.959Z,0.1
2019-03-30T00:14:32.793Z,0.1
2019-03-30T00:14:44.635Z,0.1
2019-03-30T00:14:56.533Z,0.1
2019-03-30T00:15:08.368Z,0.1
2019-03-30T00:15:20.205Z,0.1
2019-03-30T00:15:32.036Z,0.1
2019-03-30T00:15:43.868Z,0.2
2019-03-30T00:15:55.703Z,0.2
2019-03-30T00:16:07.531Z,0.2
2019-03-30T00:16:19.362Z,0.1
2019-03-30T00:16:31.199Z,0.1
2019-03-30T00:16:43.022Z,0.1
2019-03-30T00:16:54.861Z,0.1
2019-03-30T00:17:06.697Z,0.1
2019-03-30T00:17:18.524Z,0.1
2019-03-30T00:17:30.354Z,0.1
2019-03-30T00:17:42.189Z,0.1
2019-03-30T00:17:54.024Z,0.2
2019-03-30T00:18:05.862Z,0.2
2019-03-30T00:18:17.741Z,0.2
2019-03-30T00:18:29.529Z,0.2
2019-03-30T00:18:41.643Z,0.3
2019-03-30T00:18:53.180Z,0.3
2019-03-30T00:19:05.012Z,0.2
2019-03-30T00:19:16.847Z,0.1
2019-03-30T00:19:34.964Z,0.1
2019-03-30T00:19:41.467Z,0.3
2019-03-30T00:19:53.328Z,0.3
2019-03-30T00:20:05.228Z,0.1
2019-03-30T00:20:17.062Z,0.1
2019-03-30T00:20:28.902Z,0.1
2019-03-30T00:20:40.748Z,0.2
2019-03-30T00:20:52.566Z,0.2
2019-03-30T00:21:04.405Z,0.2
2019-03-30T00:21:16.226Z,0.2
2019-03-30T00:21:28.069Z,0.2
2019-03-30T00:21:39.906Z,0.2
2019-03-30T00:21:51.736Z,0.1
2019-03-30T00:22:03.565Z,0.1
2019-03-30T00:22:16.389Z,0.1
2019-03-30T00:22:28.219Z,0.1
2019-03-30T00:22:40.048Z,0.1
2019-03-30T00:22:51.883Z,0.1
2019-03-30T00:23:03.711Z,0.1
2019-03-30T00:23:15.544Z,0.1
2019-03-30T00:23:27.375Z,0.2
2019-03-30T00:23:39.206Z,0.2
2019-03-30T00:23:51.042Z,0.2
2019-03-30T00:24:02.871Z,0.2
2019-03-30T00:24:14.707Z,0.2
2019-03-30T00:24:26.543Z,0.2
2019-03-30T00:24:38.376Z,0.2
2019-03-30T00:24:50.218Z,0.2
2019-03-30T00:25:02.081Z,0.2
2019-03-30T00:25:13.913Z,0.2
2019-03-30T00:25:33.074Z,0.2
2019-03-30T00:25:45.903Z,0.1
2019-03-30T00:25:57.729Z,0.1
2019-03-30T00:26:09.623Z,0.1
2019-03-30T00:26:21.456Z,0.3
2019-03-30T00:26:33.289Z,0.3
2019-03-30T00:26:45.125Z,0.3
2019-03-30T00:26:56.956Z,0.2
2019-03-30T00:27:08.788Z,0.2
2019-03-30T00:27:20.617Z,0.2
2019-03-30T00:27:32.456Z,0.1
2019-03-30T00:27:44.279Z,0.1
2019-03-30T00:27:56.111Z,0.2
2019-03-30T00:28:07.948Z,0.2
2019-03-30T00:28:19.784Z,0.1
2019-03-30T00:28:31.614Z,0.2
2019-03-30T00:28:43.449Z,0.2
2019-03-30T00:28:55.278Z,0.3
2019-03-30T00:29:07.111Z,0.2
2019-03-30T00:29:18.999Z,0.2
2019-03-30T00:29:30.775Z,0.2
2019-03-30T00:29:42.601Z,0.2
2019-03-30T00:29:54.449Z,0.1
2019-03-30T00:30:06.284Z,0.2
2019-03-30T00:30:19.218Z,0.4
2019-03-30T00:30:29.939Z,0.3
2019-03-30T00:30:41.778Z,0.1
2019-03-30T00:30:53.616Z,0.1
2019-03-30T00:31:05.474Z,0.1
2019-03-30T00:31:17.316Z,0.1
2019-03-30T00:31:29.151Z,0.1
2019-03-30T00:31:40.979Z,0.1
2019-03-30T00:31:52.949Z,0.1
2019-03-30T00:32:04.783Z,0.2
2019-03-30T00:32:16.617Z,0.2
2019-03-30T00:32:28.456Z,0.2
2019-03-30T00:32:40.287Z,0.3
2019-03-30T00:32:52.125Z,0.2
2019-03-30T00:33:03.959Z,0.3
2019-03-30T00:33:15.797Z,0.2
2019-03-30T00:33:27.634Z,0.1
2019-03-30T00:33:39.470Z,0.1
2019-03-30T00:33:51.306Z,0.1
2019-03-30T00:34:03.133Z,0.1
2019-03-30T00:34:14.968Z,0.1
2019-03-30T00:34:26.805Z,0.1
2019-03-30T00:34:38.639Z,0.1
2019-03-30T00:34:50.477Z,0.1
2019-03-30T00:35:02.311Z,0.1
2019-03-30T00:35:14.149Z,0.2
2019-03-30T00:35:25.975Z,0.2
2019-03-30T00:35:37.809Z,0.3
2019-03-30T00:35:49.641Z,0.2
2019-03-30T00:36:01.478Z,0.2
2019-03-30T00:36:13.310Z,0.1
2019-03-30T00:36:25.142Z,0.1
2019-03-30T00:36:36.969Z,0.1
2019-03-30T00:36:48.950Z,0.1
2019-03-30T00:37:00.787Z,0.1
2019-03-30T00:37:12.622Z,0.3
2019-03-30T00:37:24.452Z,0.5
2019-03-30T00:37:36.288Z,0.5
2019-03-30T00:37:48.124Z,0.2
2019-03-30T00:37:59.963Z,0.2
2019-03-30T00:38:11.794Z,0.2
2019-03-30T00:38:23.614Z,0.1
2019-03-30T00:38:35.444Z,0.1
2019-03-30T00:38:47.287Z,0.1
2019-03-30T00:38:59.111Z,0.1
2019-03-30T00:39:10.945Z,0.2
2019-03-30T00:39:22.780Z,0.2
2019-03-30T00:39:34.614Z,0.1
2019-03-30T00:39:46.449Z,0.1
2019-03-30T00:39:58.283Z,0.1
2019-03-30T00:40:10.118Z,0.1
2019-03-30T00:40:21.951Z,0.1
2019-03-30T00:40:33.783Z,0.2
2019-03-30T00:40:45.616Z,0.2
2019-03-30T00:40:57.450Z,0.2
2019-03-30T00:41:09.282Z,0.1
2019-03-30T00:41:21.107Z,0.1
2019-03-30T00:41:33.927Z,0.1
2019-03-30T00:41:45.769Z,0.1
2019-03-30T00:41:57.758Z,0.2
2019-03-30T00:42:09.594Z,0.2
2019-03-30T00:42:21.428Z,0.1
2019-03-30T00:42:33.258Z,0.1
2019-03-30T00:42:45.093Z,0.1
2019-03-30T00:42:56.924Z,0.2
2019-03-30T00:43:08.756Z,0.3
2019-03-30T00:43:20.583Z,0.2
2019-03-30T00:43:32.411Z,0.2
2019-03-30T00:43:44.246Z,0.2
2019-03-30T00:43:56.083Z,0.5
2019-03-30T00:44:07.920Z,0.5
2019-03-30T00:44:19.752Z,0.2
2019-03-30T00:44:31.584Z,0.1
2019-03-30T00:44:43.413Z,0.3
2019-03-30T00:44:55.247Z,0.3
2019-03-30T00:45:07.084Z,0.1
2019-03-30T00:45:18.912Z,0.2
2019-03-30T00:45:30.753Z,0.3
2019-03-30T00:45:42.594Z,0.3
2019-03-30T00:45:54.423Z,0.3
2019-03-30T00:46:06.252Z,0.2
2019-03-30T00:46:18.067Z,0.2
2019-03-30T00:46:29.900Z,0.2
2019-03-30T00:46:41.728Z,0.2
2019-03-30T00:46:53.595Z,0.2
2019-03-30T00:47:05.434Z,0.1
2019-03-30T00:47:17.251Z,0.1
2019-03-30T00:47:29.082Z,0.1
2019-03-30T00:47:40.911Z,0.1
2019-03-30T00:47:52.742Z,0.1
2019-03-30T00:48:04.580Z,0.1
2019-03-30T00:48:16.442Z,0.1
2019-03-30T00:48:28.275Z,0.1
2019-03-30T00:48:40.105Z,0.2
2019-03-30T00:48:51.939Z,0.2
2019-03-30T00:49:03.772Z,0.2
2019-03-30T00:49:15.604Z,0.2
2019-03-30T00:49:27.463Z,0.2
2019-03-30T00:49:48.730Z,0.1
2019-03-30T00:49:52.083Z,0.2
2019-03-30T00:50:03.913Z,0.2
2019-03-30T00:50:15.748Z,0.1
2019-03-30T00:50:27.581Z,0.2
2019-03-30T00:50:39.443Z,0.2
2019-03-30T00:50:51.278Z,0.1
2019-03-30T00:51:04.109Z,0.2
2019-03-30T00:51:15.948Z,0.2
2019-03-30T00:51:27.779Z,0.1
2019-03-30T00:51:39.612Z,0.1
2019-03-30T00:51:51.444Z,0.2
2019-03-30T00:52:03.280Z,0.2
2019-03-30T00:52:15.140Z,0.2
2019-03-30T00:52:26.974Z,0.1
2019-03-30T00:52:38.876Z,0.1
2019-03-30T00:52:50.639Z,0.2
2019-03-30T00:53:02.473Z,0.4
2019-03-30T00:53:14.303Z,0.4
2019-03-30T00:53:26.134Z,0.3
2019-03-30T00:53:37.970Z,0.1
2019-03-30T00:53:49.801Z,0.1
2019-03-30T00:54:01.645Z,0.1
2019-03-30T00:54:13.508Z,0.2
2019-03-30T00:54:25.345Z,0.2
2019-03-30T00:54:37.167Z,0.2
2019-03-30T00:54:49.001Z,0.2
2019-03-30T00:55:00.832Z,0.1
2019-03-30T00:55:12.668Z,0.1
2019-03-30T00:55:24.510Z,0.1
2019-03-30T00:55:36.342Z,0.1
2019-03-30T00:55:48.173Z,0.1
2019-03-30T00:56:00.004Z,0.1
2019-03-30T00:56:11.839Z,0.2
2019-03-30T00:56:23.670Z,0.3
2019-03-30T00:56:35.508Z,0.3
2019-03-30T00:56:47.346Z,0.2
2019-03-30T00:56:59.184Z,0.2
2019-03-30T00:57:11.021Z,0.2
2019-03-30T00:57:22.858Z,0.2
2019-03-30T00:57:34.698Z,0.1
2019-03-30T00:57:46.552Z,0.2
2019-03-30T00:57:58.393Z,0.2
2019-03-30T00:58:11.218Z,0.2
2019-03-30T00:58:25.574Z,0.2
2019-03-30T00:58:34.876Z,0.2
2019-03-30T00:58:46.712Z,0.2
2019-03-30T00:58:58.554Z,0.1
2019-03-30T00:59:10.382Z,0.1
2019-03-30T00:59:22.221Z,0.1
2019-03-30T00:59:34.052Z,0.1
2019-03-30T00:59:45.885Z,0.2
2019-03-30T00:59:57.724Z,0.1
2019-03-30T01:00:09.583Z,0.1
2019-03-30T01:00:21.418Z,0.2
2019-03-30T01:00:33.256Z,0.2
2019-03-30T01:00:45.079Z,0.2
2019-03-30T01:00:56.915Z,0.2
2019-03-30T01:01:08.743Z,0.2
2019-03-30T01:01:20.646Z,0.3
2019-03-30T01:01:32.475Z,0.2
2019-03-30T01:01:44.306Z,0.2
2019-03-30T01:01:56.141Z,0.1
2019-03-30T01:02:07.974Z,0.3
2019-03-30T01:02:19.799Z,0.3
2019-03-30T01:02:31.643Z,0.2
2019-03-30T01:02:43.475Z,0.2
2019-03-30T01:02:55.304Z,0.6
2019-03-30T01:03:07.167Z,0.6
2019-03-30T01:03:19.004Z,0.2
2019-03-30T01:03:30.849Z,0.2
2019-03-30T01:03:42.682Z,0.2
2019-03-30T01:03:54.513Z,0.2
2019-03-30T01:04:06.345Z,0.2
2019-03-30T01:04:18.172Z,0.2
2019-03-30T01:04:30.006Z,0.1
2019-03-30T01:04:41.842Z,1.5
2019-03-30T01:04:53.671Z,1.5
2019-03-30T01:05:05.504Z,1.6
2019-03-30T01:05:17.341Z,0.1
2019-03-30T01:05:29.165Z,0.3
2019-03-30T01:05:41.002Z,0.3
2019-03-30T01:05:52.837Z,0.3
2019-03-30T01:06:04.670Z,0.2
2019-03-30T01:06:16.494Z,0.2
2019-03-30T01:06:28.331Z,0.2
2019-03-30T01:06:40.157Z,0.2
2019-03-30T01:06:51.988Z,0.1
2019-03-30T01:07:03.826Z,0.1
2019-03-30T01:07:15.660Z,0.1
2019-03-30T01:07:27.489Z,0.1
2019-03-30T01:07:39.351Z,0.2
2019-03-30T01:07:51.185Z,0.2
2019-03-30T01:08:03.022Z,0.2
2019-03-30T01:08:14.857Z,0.2
2019-03-30T01:08:26.691Z,0.2
2019-03-30T01:08:38.516Z,0.2
2019-03-30T01:08:50.352Z,0.2
2019-03-30T01:09:02.184Z,0.3
2019-03-30T01:09:14.012Z,0.3
2019-03-30T01:09:25.844Z,0.3
2019-03-30T01:09:37.679Z,0.1
2019-03-30T01:09:49.513Z,0.1
2019-03-30T01:10:01.342Z,0.1
2019-03-30T01:10:13.206Z,0.1
2019-03-30T01:10:25.039Z,0.1
2019-03-30T01:10:36.876Z,0.1
2019-03-30T01:10:48.720Z,0.1
2019-03-30T01:11:00.554Z,0.3
2019-03-30T01:11:12.386Z,0.4
2019-03-30T01:11:24.227Z,0.4
2019-03-30T01:11:36.077Z,0.3
2019-03-30T01:11:47.899Z,0.2
2019-03-30T01:11:59.736Z,0.2
2019-03-30T01:12:11.569Z,0.2
2019-03-30T01:12:23.399Z,0.2
2019-03-30T01:12:35.231Z,0.2
2019-03-30T01:12:47.145Z,0.1
2019-03-30T01:12:58.894Z,0.1
2019-03-30T01:13:10.727Z,0.2
2019-03-30T01:13:22.558Z,0.1
2019-03-30T01:13:34.397Z,0.3
2019-03-30T01:13:46.240Z,0.3
2019-03-30T01:13:58.071Z,0.3
2019-03-30T01:14:09.906Z,0.2
2019-03-30T01:14:21.742Z,0.2
2019-03-30T01:14:33.582Z,0.2
2019-03-30T01:14:45.414Z,0.1
2019-03-30T01:14:57.246Z,0.2
2019-03-30T01:15:09.112Z,0.2
2019-03-30T01:15:20.946Z,0.1
2019-03-30T01:15:32.781Z,0.1
2019-03-30T01:15:44.616Z,0.1
2019-03-30T01:15:56.453Z,0.1
2019-03-30T01:16:08.353Z,0.2
2019-03-30T01:16:21.183Z,0.2
2019-03-30T01:16:33.022Z,0.4
2019-03-30T01:16:44.860Z,0.3
2019-03-30T01:16:56.682Z,0.3
2019-03-30T01:17:08.512Z,0.1
2019-03-30T01:17:20.348Z,0.1
2019-03-30T01:17:32.183Z,0.1
2019-03-30T01:17:44.019Z,0.1
2019-03-30T01:17:55.852Z,0.1
2019-03-30T01:18:07.684Z,0.1
2019-03-30T01:18:19.512Z,0.1
2019-03-30T01:18:31.346Z,0.2
2019-03-30T01:18:43.184Z,0.5
2019-03-30T01:18:55.016Z,0.4
2019-03-30T01:19:06.843Z,0.4
2019-03-30T01:19:18.676Z,0.2
2019-03-30T01:19:30.512Z,0.1
2019-03-30T01:19:42.345Z,0.1
2019-03-30T01:20:02.562Z,0.1
2019-03-30T01:20:07.956Z,0.2
2019-03-30T01:20:19.790Z,0.1
2019-03-30T01:20:31.634Z,0.2
2019-03-30T01:20:43.470Z,0.3
2019-03-30T01:20:55.304Z,0.3
2019-03-30T01:21:07.140Z,0.3
2019-03-30T01:21:19.037Z,0.3
2019-03-30T01:21:30.868Z,0.3
2019-03-30T01:21:42.705Z,0.3
2019-03-30T01:21:56.135Z,0.1
2019-03-30T01:22:06.362Z,0.2
2019-03-30T01:22:18.199Z,0.2
2019-03-30T01:22:30.033Z,0.2
2019-03-30T01:22:41.863Z,0.1
2019-03-30T01:22:53.695Z,0.1
2019-03-30T01:23:05.531Z,0.2
2019-03-30T01:23:17.365Z,0.1
2019-03-30T01:23:29.196Z,0.2
2019-03-30T01:23:41.034Z,0.1
2019-03-30T01:23:52.869Z,0.1
2019-03-30T01:24:04.699Z,0.1
2019-03-30T01:24:16.531Z,0.2
2019-03-30T01:24:28.363Z,0.3
2019-03-30T01:24:40.200Z,0.3
2019-03-30T01:24:52.044Z,0.2
2019-03-30T01:25:03.868Z,0.2
2019-03-30T01:25:15.713Z,0.1
2019-03-30T01:25:27.534Z,0.1
2019-03-30T01:25:39.366Z,0.1
2019-03-30T01:25:51.211Z,0.2
2019-03-30T01:26:03.046Z,0.2
2019-03-30T01:26:14.944Z,0.2
2019-03-30T01:26:26.795Z,0.1
2019-03-30T01:26:38.631Z,0.1
2019-03-30T01:26:50.468Z,0.1
2019-03-30T01:27:02.304Z,0.2
2019-03-30T01:27:14.134Z,0.2
2019-03-30T01:27:25.973Z,0.2
2019-03-30T01:27:37.803Z,0.2
2019-03-30T01:27:49.636Z,0.2
2019-03-30T01:28:01.467Z,0.3
2019-03-30T01:28:13.303Z,0.2
2019-03-30T01:28:25.134Z,0.1
2019-03-30T01:28:36.975Z,0.2
2019-03-30T01:28:48.808Z,0.2
2019-03-30T01:29:00.644Z,0.2
2019-03-30T01:29:12.525Z,0.3
2019-03-30T01:29:24.303Z,0.2
2019-03-30T01:29:36.139Z,0.2
2019-03-30T01:29:47.971Z,0.1
2019-03-30T01:29:59.806Z,0.2
2019-03-30T01:30:22.369Z,0.2
2019-03-30T01:30:24.422Z,0.3
2019-03-30T01:30:36.250Z,0.3
2019-03-30T01:30:48.082Z,0.2
2019-03-30T01:30:59.917Z,0.3
2019-03-30T01:31:11.783Z,0.3
2019-03-30T01:31:23.616Z,0.3
2019-03-30T01:31:35.447Z,0.1
2019-03-30T01:31:47.269Z,0.1
2019-03-30T01:31:59.108Z,0.3
2019-03-30T01:32:10.943Z,0.3
2019-03-30T01:32:22.773Z,0.3
2019-03-30T01:32:35.087Z,0.2
2019-03-30T01:32:46.439Z,0.1
2019-03-30T01:32:58.262Z,0.2
2019-03-30T01:33:10.116Z,0.1
2019-03-30T01:33:21.949Z,0.1
2019-03-30T01:33:33.787Z,0.1
2019-03-30T01:33:45.618Z,0.2
2019-03-30T01:33:57.450Z,0.2
2019-03-30T01:34:09.282Z,0.2
2019-03-30T01:34:21.117Z,0.3
2019-03-30T01:34:32.950Z,0.2
2019-03-30T01:34:44.780Z,0.2
2019-03-30T01:34:56.625Z,0.1
2019-03-30T01:35:08.542Z,0.1
2019-03-30T01:35:20.412Z,0.1
2019-03-30T01:35:32.123Z,0.2
2019-03-30T01:35:43.961Z,0.2
2019-03-30T01:35:55.799Z,0.2
2019-03-30T01:36:07.630Z,0.3
2019-03-30T01:36:19.469Z,0.3
2019-03-30T01:36:31.314Z,0.3
2019-03-30T01:36:43.148Z,0.2
2019-03-30T01:36:54.984Z,0.2
2019-03-30T01:37:06.815Z,0.2
2019-03-30T01:37:18.647Z,0.1
2019-03-30T01:37:30.478Z,0.1
2019-03-30T01:37:42.341Z,0.1
2019-03-30T01:37:54.175Z,0.1
2019-03-30T01:38:06.995Z,0.2
2019-03-30T01:38:18.824Z,0.2
2019-03-30T01:38:30.683Z,0.2
2019-03-30T01:38:42.516Z,0.3
2019-03-30T01:38:54.350Z,0.5
2019-03-30T01:39:06.189Z,0.5
2019-03-30T01:39:18.024Z,0.2
2019-03-30T01:39:29.861Z,0.2
2019-03-30T01:39:41.690Z,0.2
2019-03-30T01:39:53.519Z,0.1
2019-03-30T01:40:05.343Z,0.1
2019-03-30T01:40:17.222Z,0.1
2019-03-30T01:40:28.997Z,0.1
2019-03-30T01:40:40.825Z,0.1
2019-03-30T01:40:52.657Z,0.1
2019-03-30T01:41:04.497Z,0.2
2019-03-30T01:41:16.324Z,1.3
2019-03-30T01:41:28.157Z,1.7
2019-03-30T01:41:40.001Z,1.6
2019-03-30T01:41:51.827Z,0.4
2019-03-30T01:42:03.660Z,0.1
2019-03-30T01:42:15.497Z,0.2
2019-03-30T01:42:27.324Z,0.2
2019-03-30T01:42:39.154Z,0.4
2019-03-30T01:42:50.984Z,0.4
2019-03-30T01:43:02.845Z,0.3
2019-03-30T01:43:14.679Z,0.4
2019-03-30T01:43:26.515Z,0.2
2019-03-30T01:43:38.349Z,0.1
2019-03-30T01:43:50.184Z,0.1
2019-03-30T01:44:02.008Z,0.2
2019-03-30T01:44:13.976Z,0.2
2019-03-30T01:44:25.822Z,0.2
2019-03-30T01:44:37.636Z,0.1
2019-03-30T01:44:49.470Z,0.3
2019-03-30T01:45:01.318Z,0.2
2019-03-30T01:45:13.138Z,0.2
2019-03-30T01:45:24.984Z,0.6
2019-03-30T01:45:36.814Z,0.6
2019-03-30T01:45:48.649Z,0.6
2019-03-30T01:46:00.484Z,0.1
2019-03-30T01:46:12.319Z,0.1
2019-03-30T01:46:24.149Z,0.1
2019-03-30T01:46:35.982Z,0.3
2019-03-30T01:46:48.141Z,0.3
2019-03-30T01:46:59.653Z,0.2
2019-03-30T01:47:11.491Z,0.2
2019-03-30T01:47:23.325Z,0.1
2019-03-30T01:47:35.162Z,0.2
2019-03-30T01:47:47.224Z,0.5
2019-03-30T01:47:58.848Z,0.5
2019-03-30T01:48:10.684Z,0.4
2019-03-30T01:48:22.511Z,0.1
2019-03-30T01:48:34.348Z,0.1
2019-03-30T01:48:46.183Z,0.1
2019-03-30T01:48:58.015Z,0.1
2019-03-30T01:49:09.885Z,0.2
2019-03-30T01:49:21.703Z,0.1
2019-03-30T01:49:33.596Z,0.2
2019-03-30T01:49:45.428Z,0.3
2019-03-30T01:49:57.264Z,0.3
2019-03-30T01:50:16.921Z,0.3
2019-03-30T01:50:22.867Z,0.2
2019-03-30T01:50:34.699Z,0.3
2019-03-30T01:50:46.528Z,0.5
2019-03-30T01:50:58.364Z,0.4
2019-03-30T01:51:10.195Z,0.2
2019-03-30T01:51:22.029Z,0.2
2019-03-30T01:51:33.866Z,0.2
2019-03-30T01:51:45.709Z,0.1
2019-03-30T01:51:57.539Z,0.2
2019-03-30T01:52:09.367Z,0.2
2019-03-30T01:52:21.204Z,0.4
2019-03-30T01:52:33.037Z,0.4
2019-03-30T01:52:44.869Z,0.3
2019-03-30T01:52:56.703Z,0.3
2019-03-30T01:53:08.537Z,0.2
2019-03-30T01:53:20.368Z,0.1
2019-03-30T01:53:32.203Z,0.1
2019-03-30T01:53:44.037Z,0.1
2019-03-30T01:53:55.879Z,0.1
2019-03-30T01:54:07.710Z,0.1
2019-03-30T01:54:19.537Z,0.1
2019-03-30T01:54:31.375Z,0.1
2019-03-30T01:54:43.246Z,0.1
2019-03-30T01:54:55.077Z,0.1
2019-03-30T01:55:06.919Z,0.1
2019-03-30T01:55:18.790Z,0.2
2019-03-30T01:55:30.626Z,0.2
2019-03-30T01:55:42.458Z,0.3
2019-03-30T01:55:54.287Z,0.2
2019-03-30T01:56:06.119Z,0.2
2019-03-30T01:56:17.959Z,0.2
2019-03-30T01:56:29.786Z,0.2
2019-03-30T01:56:41.607Z,0.1
2019-03-30T01:56:53.447Z,0.1
2019-03-30T01:57:05.286Z,0.1
2019-03-30T01:57:17.113Z,0.2
2019-03-30T01:57:28.953Z,0.2
2019-03-30T01:57:40.794Z,0.2
2019-03-30T01:57:52.621Z,0.1
2019-03-30T01:58:04.458Z,0.1
2019-03-30T01:58:16.295Z,0.3
2019-03-30T01:58:28.136Z,0.3
2019-03-30T01:58:39.967Z,0.1
2019-03-30T01:58:51.801Z,0.1
2019-03-30T01:59:03.630Z,0.2
2019-03-30T01:59:15.466Z,0.2
2019-03-30T01:59:27.300Z,0.2
2019-03-30T01:59:39.133Z,0.2
2019-03-30T01:59:50.962Z,0.2
2019-03-30T02:00:02.798Z,0.3
2019-03-30T02:00:14.660Z,0.3
2019-03-30T02:00:26.488Z,0.1
2019-03-30T02:00:38.320Z,0.1
2019-03-30T02:00:50.160Z,0.1
2019-03-30T02:01:01.993Z,0.2
2019-03-30T02:01:13.823Z,0.1
2019-03-30T02:01:25.656Z,0.2
2019-03-30T02:01:37.485Z,0.2
2019-03-30T02:01:49.372Z,0.1
2019-03-30T02:02:01.212Z,0.1
2019-03-30T02:02:13.049Z,0.1
2019-03-30T02:02:24.880Z,0.1
2019-03-30T02:02:36.713Z,0.1
2019-03-30T02:02:48.544Z,0.3
2019-03-30T02:03:00.377Z,0.2
2019-03-30T02:03:12.210Z,0.1
2019-03-30T02:03:24.043Z,0.1
2019-03-30T02:03:35.875Z,0.1
2019-03-30T02:03:47.704Z,0.2
2019-03-30T02:03:59.536Z,0.1
2019-03-30T02:04:11.365Z,0.1
2019-03-30T02:04:23.197Z,0.2
2019-03-30T02:04:35.033Z,0.2
2019-03-30T02:04:46.866Z,0.2
2019-03-30T02:04:58.699Z,0.2
2019-03-30T02:05:10.532Z,0.2
2019-03-30T02:05:22.362Z,0.1
2019-03-30T02:05:34.198Z,0.1
2019-03-30T02:05:46.030Z,0.1
2019-03-30T02:05:57.863Z,0.1
2019-03-30T02:06:09.689Z,0.1
2019-03-30T02:06:21.524Z,0.1
2019-03-30T02:06:33.354Z,0.1
2019-03-30T02:06:45.341Z,0.1
2019-03-30T02:06:57.171Z,0.1
2019-03-30T02:07:09.008Z,0.1
2019-03-30T02:07:20.839Z,0.1
2019-03-30T02:07:32.678Z,0.1
2019-03-30T02:07:44.514Z,0.1
2019-03-30T02:07:56.333Z,0.2
2019-03-30T02:08:08.166Z,0.2
2019-03-30T02:08:20.000Z,0.2
2019-03-30T02:08:31.829Z,0.3
2019-03-30T02:08:43.668Z,0.3
2019-03-30T02:08:55.507Z,0.2
2019-03-30T02:09:07.341Z,0.2
2019-03-30T02:09:19.170Z,0.2
2019-03-30T02:09:31.005Z,0.2
2019-03-30T02:09:42.836Z,0.2
2019-03-30T02:09:54.669Z,0.1
2019-03-30T02:10:06.504Z,0.1
2019-03-30T02:10:18.339Z,0.2
2019-03-30T02:10:30.172Z,0.1
2019-03-30T02:10:42.003Z,0.1
2019-03-30T02:10:53.833Z,0.1
2019-03-30T02:11:05.671Z,0.1
2019-03-30T02:11:17.511Z,0.2
2019-03-30T02:11:29.344Z,0.2
2019-03-30T02:11:41.204Z,0.2
2019-03-30T02:11:53.062Z,0.1
2019-03-30T02:12:04.888Z,0.1
2019-03-30T02:12:16.711Z,0.2
2019-03-30T02:12:28.549Z,0.2
2019-03-30T02:12:40.387Z,0.2
2019-03-30T02:12:52.223Z,0.1
2019-03-30T02:13:04.065Z,0.1
2019-03-30T02:13:15.895Z,0.1
2019-03-30T02:13:27.725Z,0.1
2019-03-30T02:13:39.565Z,0.1
2019-03-30T02:13:51.403Z,0.1
2019-03-30T02:14:03.231Z,0.1
2019-03-30T02:14:15.065Z,0.1
2019-03-30T02:14:26.894Z,0.2
2019-03-30T02:14:38.724Z,0.2
2019-03-30T02:14:50.556Z,0.1
2019-03-30T02:15:02.390Z,0.2
2019-03-30T02:15:14.214Z,0.2
2019-03-30T02:15:26.042Z,0.2
2019-03-30T02:15:37.875Z,0.1
2019-03-30T02:15:49.706Z,0.1
2019-03-30T02:16:01.536Z,0.1
2019-03-30T02:16:13.369Z,0.1
2019-03-30T02:16:25.194Z,0.1
2019-03-30T02:16:37.031Z,0.1
2019-03-30T02:16:48.890Z,0.2
2019-03-30T02:17:00.725Z,0.2
2019-03-30T02:17:12.551Z,0.3
2019-03-30T02:17:25.396Z,0.3
2019-03-30T02:17:37.229Z,0.2
2019-03-30T02:17:49.061Z,0.1
2019-03-30T02:18:00.892Z,0.1
2019-03-30T02:18:12.727Z,0.2
2019-03-30T02:18:24.561Z,0.2
2019-03-30T02:18:36.392Z,0.2
2019-03-30T02:18:48.228Z,0.1
2019-03-30T02:19:00.058Z,0.2
2019-03-30T02:19:11.888Z,0.1
2019-03-30T02:19:23.720Z,0.1
2019-03-30T02:19:35.551Z,0.1
2019-03-30T02:19:47.392Z,0.1
2019-03-30T02:19:59.218Z,0.2
2019-03-30T02:20:11.049Z,0.2
2019-03-30T02:20:30.538Z,0.2
2019-03-30T02:20:36.663Z,0.2
2019-03-30T02:20:48.498Z,0.1
2019-03-30T02:21:00.335Z,0.1
2019-03-30T02:21:12.162Z,0.1
2019-03-30T02:21:23.998Z,0.1
2019-03-30T02:21:35.889Z,0.1
2019-03-30T02:21:47.650Z,0.1
2019-03-30T02:21:59.491Z,0.1
2019-03-30T02:22:11.354Z,0.1
2019-03-30T02:22:23.187Z,0.2
2019-03-30T02:22:35.023Z,0.3
2019-03-30T02:22:46.857Z,0.3
2019-03-30T02:22:58.686Z,0.2
2019-03-30T02:23:10.544Z,0.1
2019-03-30T02:23:23.367Z,0.2
2019-03-30T02:23:35.200Z,0.2
2019-03-30T02:23:47.037Z,0.2
2019-03-30T02:23:58.870Z,0.1
2019-03-30T02:24:10.713Z,0.2
2019-03-30T02:24:22.548Z,0.2
2019-03-30T02:24:34.381Z,0.1
2019-03-30T02:24:46.214Z,0.2
2019-03-30T02:24:58.115Z,0.2
2019-03-30T02:25:09.880Z,0.1
2019-03-30T02:25:21.707Z,0.1
2019-03-30T02:25:33.536Z,0.8
2019-03-30T02:25:45.370Z,0.8
2019-03-30T02:25:57.200Z,0.8
2019-03-30T02:26:09.033Z,0.2
2019-03-30T02:26:20.869Z,0.2
2019-03-30T02:26:32.700Z,0.2
2019-03-30T02:26:44.534Z,0.1
2019-03-30T02:26:56.367Z,0.1
2019-03-30T02:27:08.203Z,0.1
2019-03-30T02:27:20.036Z,0.2
2019-03-30T02:27:31.997Z,0.2
2019-03-30T02:27:43.831Z,0.3
2019-03-30T02:27:55.660Z,0.3
2019-03-30T02:28:07.481Z,0.1
2019-03-30T02:28:19.307Z,0.3
2019-03-30T02:28:31.142Z,0.3
2019-03-30T02:28:42.969Z,0.1
2019-03-30T02:28:54.801Z,0.1
2019-03-30T02:29:06.635Z,0.3
2019-03-30T02:29:18.471Z,0.3
2019-03-30T02:29:30.306Z,0.3
2019-03-30T02:29:42.133Z,0.2
2019-03-30T02:29:53.955Z,0.2
2019-03-30T02:30:05.788Z,0.2
2019-03-30T02:30:17.617Z,1
2019-03-30T02:30:29.465Z,1
2019-03-30T02:30:41.283Z,1
2019-03-30T02:30:53.122Z,0.1
2019-03-30T02:31:04.952Z,0.1
2019-03-30T02:31:16.801Z,0.1
2019-03-30T02:31:28.647Z,0.1
2019-03-30T02:31:40.457Z,0.1
2019-03-30T02:31:52.291Z,0.1
2019-03-30T02:32:04.158Z,0.5
2019-03-30T02:32:15.955Z,0.4
2019-03-30T02:32:27.813Z,0.5
2019-03-30T02:32:39.638Z,0.2
2019-03-30T02:32:51.524Z,0.2
2019-03-30T02:33:03.351Z,0.1
2019-03-30T02:33:15.184Z,0.1
2019-03-30T02:33:27.016Z,0.1
2019-03-30T02:33:38.846Z,0.1
2019-03-30T02:33:50.673Z,0.1
2019-03-30T02:34:02.506Z,0.1
2019-03-30T02:34:14.342Z,0.1
2019-03-30T02:34:26.171Z,0.2
2019-03-30T02:34:37.999Z,0.2
2019-03-30T02:34:50.824Z,0.2
2019-03-30T02:35:02.655Z,0.2
2019-03-30T02:35:14.492Z,0.2
2019-03-30T02:35:26.654Z,0.2
2019-03-30T02:35:38.145Z,0.2
2019-03-30T02:35:49.977Z,0.3
2019-03-30T02:36:01.808Z,0.2
2019-03-30T02:36:13.643Z,0.2
2019-03-30T02:36:25.476Z,0.1
2019-03-30T02:36:37.329Z,0.4
2019-03-30T02:36:49.148Z,0.4
2019-03-30T02:37:00.972Z,0.6
2019-03-30T02:37:12.808Z,0.3
2019-03-30T02:37:24.646Z,0.3
2019-03-30T02:37:36.476Z,0.4
2019-03-30T02:37:48.367Z,0.4
2019-03-30T02:38:00.207Z,0.3
2019-03-30T02:38:12.041Z,0.1
2019-03-30T02:38:23.874Z,0.1
2019-03-30T02:38:35.707Z,0.1
2019-03-30T02:38:47.542Z,0.2
2019-03-30T02:38:59.375Z,0.2
2019-03-30T02:39:11.220Z,0.3
2019-03-30T02:39:23.047Z,0.8
2019-03-30T02:39:34.883Z,0.8
2019-03-30T02:39:46.716Z,0.3
2019-03-30T02:39:58.545Z,0.2
2019-03-30T02:40:10.377Z,0.2
2019-03-30T02:40:22.211Z,0.2
2019-03-30T02:40:34.045Z,0.2
2019-03-30T02:40:45.876Z,0.2
2019-03-30T02:40:57.705Z,0.2
2019-03-30T02:41:09.534Z,0.2
2019-03-30T02:41:21.364Z,0.2
2019-03-30T02:41:33.205Z,0.2
2019-03-30T02:41:45.034Z,0.2
2019-03-30T02:41:56.870Z,0.1
2019-03-30T02:42:08.697Z,0.3
2019-03-30T02:42:20.528Z,0.3
2019-03-30T02:42:32.363Z,0.6
2019-03-30T02:42:44.181Z,0.5
2019-03-30T02:42:56.044Z,0.4
2019-03-30T02:43:07.902Z,0.2
2019-03-30T02:43:19.759Z,0.2
2019-03-30T02:43:31.617Z,0.2